Time;durP1;ratioP1;P1;durP2;ratioP2;P2;SDS_P1;SDS_P2;PMS_P1;PMS_P2;Temp;Humidity;BMP_temperature;BMP_pressure;BME280_temperature;BME280_humidity;BME280_pressure;Samples;Min_cycle;Max_cycle;Signal;HPM_P1;HPM_P2
2024/01/26 00:00:17;;;;;;;58.65;25.25;;;;;;;;;;4983382;28;20030;-65
2024/01/26 00:02:43;;;;;;;51.05;22.98;;;;;;;;;;4981709;28;20394;-65
2024/01/26 00:05:09;;;;;;;52.58;23.73;;;;;;;;;;4983749;28;20057;-65
2024/01/26 00:07:35;;;;;;;55.40;24.42;;;;;;;;;;4964316;28;20061;-65
2024/01/26 00:10:02;;;;;;;54.83;23.80;;;;;;;;;;4982697;28;20038;-65
2024/01/26 00:12:28;;;;;;;52.63;24.80;;;;;;;;;;4983225;28;20058;-65
2024/01/26 00:14:54;;;;;;;49.10;22.42;;;;;;;;;;4981708;28;20038;-65
2024/01/26 00:17:20;;;;;;;55.00;24.38;;;;;;;;;;4983322;28;20107;-65
2024/01/26 00:19:46;;;;;;;49.08;23.42;;;;;;;;;;4982097;28;20579;-65
2024/01/26 00:22:12;;;;;;;49.80;23.95;;;;;;;;;;4973512;28;20692;-65
2024/01/26 00:24:38;;;;;;;55.15;24.17;;;;;;;;;;4982909;28;20693;-65
2024/01/26 00:27:04;;;;;;;50.63;24.70;;;;;;;;;;4981941;28;20049;-65
2024/01/26 00:29:31;;;;;;;51.03;24.02;;;;;;;;;;4982510;28;20397;-65
2024/01/26 00:31:57;;;;;;;48.28;23.08;;;;;;;;;;4981652;28;20108;-65
2024/01/26 00:34:23;;;;;;;51.13;24.52;;;;;;;;;;4982058;28;20030;-65
2024/01/26 00:36:49;;;;;;;50.75;24.35;;;;;;;;;;4983003;28;20061;-65
2024/01/26 00:39:16;;;;;;;46.13;23.30;;;;;;;;;;4982957;28;20030;-65
2024/01/26 00:41:42;;;;;;;49.80;24.55;;;;;;;;;;4981025;28;20056;-65
2024/01/26 00:44:08;;;;;;;44.55;24.02;;;;;;;;;;4982262;28;20049;-65
2024/01/26 00:46:37;;;;;;;48.85;25.00;;;;;;;;;;4982421;28;20038;-65
2024/01/26 00:49:03;;;;;;;41.97;21.42;;;;;;;;;;4982273;28;20028;-65
2024/01/26 00:51:29;;;;;;;41.25;22.40;;;;;;;;;;4980326;28;20038;-65
2024/01/26 00:53:55;;;;;;;38.65;21.15;;;;;;;;;;4981907;28;20092;-65
2024/01/26 00:56:21;;;;;;;35.22;20.30;;;;;;;;;;4982292;28;20030;-65
2024/01/26 00:58:47;;;;;;;40.78;21.75;;;;;;;;;;4981825;28;20419;-65
2024/01/26 01:01:13;;;;;;;37.25;20.58;;;;;;;;;;4981663;28;23214;-65
2024/01/26 01:03:40;;;;;;;38.78;22.17;;;;;;;;;;4982675;28;21301;-65
2024/01/26 01:06:06;;;;;;;39.05;22.02;;;;;;;;;;4971984;28;20737;-65
2024/01/26 01:08:32;;;;;;;44.25;23.27;;;;;;;;;;4982437;28;20036;-65
2024/01/26 01:10:59;;;;;;;40.10;24.45;;;;;;;;;;4982395;28;20026;-65
2024/01/26 01:13:25;;;;;;;40.03;23.60;;;;;;;;;;4981599;28;20026;-65
2024/01/26 01:15:51;;;;;;;42.63;23.67;;;;;;;;;;4982468;28;20045;-65
2024/01/26 01:18:18;;;;;;;37.90;22.50;;;;;;;;;;4982103;28;20038;-65
2024/01/26 01:20:44;;;;;;;39.47;22.17;;;;;;;;;;4982665;28;20038;-65
2024/01/26 01:23:10;;;;;;;31.50;21.10;;;;;;;;;;4971587;28;20033;-65
2024/01/26 01:25:36;;;;;;;33.78;19.67;;;;;;;;;;4981588;28;20068;-65
2024/01/26 01:28:03;;;;;;;33.50;19.40;;;;;;;;;;4961599;28;20041;-65
2024/01/26 01:30:29;;;;;;;30.48;18.75;;;;;;;;;;4980939;28;20222;-65
2024/01/26 01:32:55;;;;;;;27.02;17.55;;;;;;;;;;4981934;28;20955;-65
2024/01/26 01:35:21;;;;;;;26.60;16.35;;;;;;;;;;4981411;28;20030;-65
2024/01/26 01:37:47;;;;;;;27.00;16.38;;;;;;;;;;4981721;28;20053;-64
2024/01/26 01:40:13;;;;;;;28.80;17.65;;;;;;;;;;4980547;28;20030;-65
2024/01/26 01:42:39;;;;;;;24.67;15.35;;;;;;;;;;4982232;28;20029;-65
2024/01/26 01:45:14;;;;;;;24.15;15.18;;;;;;;;;;4978062;28;21003;-65
2024/01/26 01:47:41;;;;;;;23.00;15.70;;;;;;;;;;4981693;28;20026;-65
2024/01/26 01:50:08;;;;;;;23.15;16.00;;;;;;;;;;4982054;28;20045;-65
2024/01/26 01:52:35;;;;;;;23.33;15.57;;;;;;;;;;4981528;28;20449;-65
2024/01/26 01:55:01;;;;;;;24.15;16.90;;;;;;;;;;4980417;28;20096;-65
2024/01/26 01:57:27;;;;;;;23.15;15.65;;;;;;;;;;4981617;28;20037;-65
2024/01/26 01:59:54;;;;;;;22.27;16.10;;;;;;;;;;4981748;28;20100;-65
2024/01/26 02:02:23;;;;;;;23.45;15.85;;;;;;;;;;4980898;28;20038;-65
2024/01/26 02:04:50;;;;;;;25.23;16.83;;;;;;;;;;4981178;28;20038;-65
2024/01/26 02:07:16;;;;;;;19.75;15.10;;;;;;;;;;4980626;28;20035;-65
2024/01/26 02:09:42;;;;;;;23.30;15.65;;;;;;;;;;4980639;28;20058;-65
2024/01/26 02:12:08;;;;;;;21.15;14.88;;;;;;;;;;4981526;28;20018;-65
2024/01/26 02:14:34;;;;;;;23.10;15.50;;;;;;;;;;4980883;28;20046;-65
2024/01/26 02:17:01;;;;;;;20.55;16.00;;;;;;;;;;4981198;28;20034;-65
2024/01/26 02:19:28;;;;;;;21.80;16.20;;;;;;;;;;4981660;28;20030;-65
2024/01/26 02:21:54;;;;;;;20.92;15.57;;;;;;;;;;4981723;28;20034;-65
2024/01/26 02:24:20;;;;;;;21.77;15.80;;;;;;;;;;4982006;28;20049;-65
2024/01/26 02:26:46;;;;;;;23.15;17.08;;;;;;;;;;4980377;28;20046;-65
2024/01/26 02:29:13;;;;;;;20.77;15.88;;;;;;;;;;4981462;28;20041;-65
2024/01/26 02:31:39;;;;;;;21.33;15.85;;;;;;;;;;4980709;28;20041;-65
2024/01/26 02:34:06;;;;;;;22.88;16.85;;;;;;;;;;4981672;28;20102;-65
2024/01/26 02:36:33;;;;;;;23.65;18.02;;;;;;;;;;4981519;28;20080;-65
2024/01/26 02:38:59;;;;;;;23.05;16.70;;;;;;;;;;4985345;28;20042;-65
2024/01/26 02:41:25;;;;;;;23.75;17.00;;;;;;;;;;4984759;28;20030;-65
2024/01/26 02:43:51;;;;;;;22.38;16.80;;;;;;;;;;4984670;28;20104;-65
2024/01/26 02:46:18;;;;;;;21.05;16.08;;;;;;;;;;4985306;28;20037;-65
2024/01/26 02:48:44;;;;;;;23.05;15.85;;;;;;;;;;4984903;28;20514;-65
2024/01/26 02:51:10;;;;;;;19.98;15.35;;;;;;;;;;4985032;28;20037;-65
2024/01/26 02:53:40;;;;;;;22.55;16.92;;;;;;;;;;4984479;28;20068;-65
2024/01/26 02:56:07;;;;;;;21.95;16.73;;;;;;;;;;4985041;28;20073;-65
2024/01/26 02:58:33;;;;;;;20.10;15.48;;;;;;;;;;4983833;28;20053;-65
2024/01/26 03:00:59;;;;;;;21.75;16.13;;;;;;;;;;4984120;28;20144;-65
2024/01/26 03:03:25;;;;;;;23.10;15.63;;;;;;;;;;4984427;28;20080;-65
2024/01/26 03:05:51;;;;;;;22.13;16.00;;;;;;;;;;4984142;28;20386;-65
2024/01/26 03:08:17;;;;;;;21.27;15.02;;;;;;;;;;4984964;28;20570;-65
2024/01/26 03:10:43;;;;;;;22.90;15.65;;;;;;;;;;4984719;28;20041;-65
2024/01/26 03:13:09;;;;;;;24.05;16.88;;;;;;;;;;4984146;28;20038;-65
2024/01/26 03:15:36;;;;;;;21.60;16.00;;;;;;;;;;4974117;28;20050;-65
2024/01/26 03:18:02;;;;;;;23.67;17.15;;;;;;;;;;4984414;28;20022;-65
2024/01/26 03:20:30;;;;;;;25.48;17.27;;;;;;;;;;4984609;28;20030;-65
2024/01/26 03:22:56;;;;;;;23.42;16.58;;;;;;;;;;4984542;28;20030;-65
2024/01/26 03:25:22;;;;;;;25.98;17.80;;;;;;;;;;4984346;28;20133;-65
2024/01/26 03:27:48;;;;;;;25.50;17.33;;;;;;;;;;4984537;28;20030;-65
2024/01/26 03:30:14;;;;;;;23.08;15.98;;;;;;;;;;4983512;28;20113;-65
2024/01/26 03:32:40;;;;;;;24.67;16.67;;;;;;;;;;4983874;28;20050;-65
2024/01/26 03:35:06;;;;;;;23.35;17.23;;;;;;;;;;4984037;28;20060;-65
2024/01/26 03:37:32;;;;;;;26.70;18.00;;;;;;;;;;4982971;28;20034;-65
2024/01/26 03:39:58;;;;;;;24.70;16.02;;;;;;;;;;4983993;28;20034;-65
2024/01/26 03:42:24;;;;;;;22.48;16.10;;;;;;;;;;4980456;28;20038;-65
2024/01/26 03:44:50;;;;;;;24.88;16.23;;;;;;;;;;4983065;28;20035;-65
2024/01/26 03:47:16;;;;;;;21.42;15.15;;;;;;;;;;4983641;28;20034;-65
2024/01/26 03:49:44;;;;;;;24.15;17.20;;;;;;;;;;4982955;28;20041;-65
2024/01/26 03:52:10;;;;;;;25.30;16.63;;;;;;;;;;4983318;28;20024;-65
2024/01/26 03:54:37;;;;;;;24.95;15.43;;;;;;;;;;4983195;28;20670;-65
2024/01/26 03:57:05;;;;;;;21.85;14.30;;;;;;;;;;4983676;28;21822;-65
2024/01/26 03:59:31;;;;;;;23.17;14.65;;;;;;;;;;4983146;28;21856;-65
2024/01/26 04:01:57;;;;;;;22.42;15.57;;;;;;;;;;4983140;28;20107;-65
2024/01/26 04:04:23;;;;;;;26.45;15.85;;;;;;;;;;4983877;28;20042;-65
2024/01/26 04:06:49;;;;;;;24.65;16.23;;;;;;;;;;4983529;28;20048;-65
2024/01/26 04:09:15;;;;;;;24.05;14.85;;;;;;;;;;4983764;28;20041;-65
2024/01/26 04:11:41;;;;;;;23.50;15.68;;;;;;;;;;4983285;28;21882;-65
2024/01/26 04:14:07;;;;;;;26.80;16.08;;;;;;;;;;4983500;28;21069;-65
2024/01/26 04:16:33;;;;;;;24.55;16.27;;;;;;;;;;4983018;28;20080;-65
2024/01/26 04:18:59;;;;;;;23.70;14.68;;;;;;;;;;4983480;28;20025;-65
2024/01/26 04:21:25;;;;;;;26.77;15.90;;;;;;;;;;4983274;28;21210;-65
2024/01/26 04:23:51;;;;;;;23.52;16.20;;;;;;;;;;4983179;28;21059;-65
2024/01/26 04:26:18;;;;;;;22.67;15.38;;;;;;;;;;4979970;28;20930;-65
2024/01/26 04:28:45;;;;;;;26.67;17.30;;;;;;;;;;4983554;28;20038;-65
2024/01/26 04:31:11;;;;;;;22.85;16.02;;;;;;;;;;4981704;28;20535;-65
2024/01/26 04:33:37;;;;;;;23.77;16.27;;;;;;;;;;4982362;28;20038;-65
2024/01/26 04:36:03;;;;;;;25.10;16.58;;;;;;;;;;4983043;28;20073;-65
2024/01/26 04:38:30;;;;;;;25.95;17.50;;;;;;;;;;4982773;28;20045;-65
2024/01/26 04:40:56;;;;;;;23.38;16.17;;;;;;;;;;4983252;28;20034;-65
2024/01/26 04:43:22;;;;;;;22.88;15.82;;;;;;;;;;4982477;28;20493;-65
2024/01/26 04:45:48;;;;;;;23.42;16.30;;;;;;;;;;4983291;28;20034;-65
2024/01/26 04:48:14;;;;;;;23.25;16.73;;;;;;;;;;4982355;28;20113;-65
2024/01/26 04:50:40;;;;;;;24.50;16.17;;;;;;;;;;4982679;28;20668;-65
2024/01/26 04:53:06;;;;;;;24.40;15.02;;;;;;;;;;4982691;28;21937;-65
2024/01/26 04:55:32;;;;;;;25.25;15.98;;;;;;;;;;4983107;28;20512;-65
2024/01/26 04:57:58;;;;;;;22.25;15.52;;;;;;;;;;4982547;28;20025;-65
2024/01/26 05:00:25;;;;;;;25.33;15.88;;;;;;;;;;4982047;28;20037;-65
2024/01/26 05:02:51;;;;;;;23.48;14.77;;;;;;;;;;4982260;28;21904;-65
2024/01/26 05:05:17;;;;;;;20.48;14.68;;;;;;;;;;4981807;28;20378;-65
2024/01/26 05:07:43;;;;;;;19.25;15.00;;;;;;;;;;4982814;28;20632;-65
2024/01/26 05:10:14;;;;;;;20.05;13.23;;;;;;;;;;4982476;28;20040;-65
2024/01/26 05:12:40;;;;;;;20.02;14.60;;;;;;;;;;4982250;28;20037;-65
2024/01/26 05:15:09;;;;;;;23.75;15.18;;;;;;;;;;4981954;28;20025;-65
2024/01/26 05:17:35;;;;;;;22.10;13.80;;;;;;;;;;4982256;28;20026;-65
2024/01/26 05:20:01;;;;;;;21.77;13.68;;;;;;;;;;4972100;28;20069;-65
2024/01/26 05:22:27;;;;;;;24.95;14.88;;;;;;;;;;4982133;28;20034;-65
2024/01/26 05:24:53;;;;;;;21.25;14.10;;;;;;;;;;4980440;28;20034;-65
2024/01/26 05:27:19;;;;;;;21.17;14.02;;;;;;;;;;4965100;28;20045;-65
2024/01/26 05:29:45;;;;;;;22.85;13.73;;;;;;;;;;4964648;28;20045;-65
2024/01/26 05:32:11;;;;;;;23.30;15.00;;;;;;;;;;4964629;28;20060;-65
2024/01/26 05:34:38;;;;;;;18.73;13.13;;;;;;;;;;4965183;28;20168;-65
2024/01/26 05:37:04;;;;;;;18.67;13.18;;;;;;;;;;4965018;28;20394;-65
2024/01/26 05:39:30;;;;;;;20.02;14.00;;;;;;;;;;4965418;28;20034;-65
2024/01/26 05:41:56;;;;;;;19.10;12.98;;;;;;;;;;4965591;28;20038;-65
2024/01/26 05:44:22;;;;;;;20.15;13.25;;;;;;;;;;4965364;28;21900;-65
2024/01/26 05:46:48;;;;;;;19.77;13.05;;;;;;;;;;4964813;28;21004;-65
2024/01/26 05:49:14;;;;;;;20.27;13.48;;;;;;;;;;4964714;28;20026;-65
2024/01/26 05:51:41;;;;;;;17.00;12.88;;;;;;;;;;4964928;28;20062;-65
2024/01/26 05:54:07;;;;;;;17.38;12.98;;;;;;;;;;4954569;28;20041;-65
2024/01/26 05:56:33;;;;;;;18.35;13.35;;;;;;;;;;4965257;28;20490;-65
2024/01/26 05:58:59;;;;;;;18.33;13.32;;;;;;;;;;4947695;28;20557;-65
2024/01/26 06:01:25;;;;;;;18.15;13.73;;;;;;;;;;4964140;28;20517;-65
2024/01/26 06:03:51;;;;;;;19.63;13.93;;;;;;;;;;4964606;28;21813;-65
2024/01/26 06:06:17;;;;;;;22.45;14.23;;;;;;;;;;4964880;28;20153;-65
2024/01/26 06:08:43;;;;;;;22.20;14.30;;;;;;;;;;4964546;28;20076;-65
2024/01/26 06:11:10;;;;;;;20.48;13.65;;;;;;;;;;4964101;28;20019;-65
2024/01/26 06:13:36;;;;;;;21.10;13.38;;;;;;;;;;4947788;28;20054;-65
2024/01/26 06:16:03;;;;;;;19.17;14.65;;;;;;;;;;4968464;28;20045;-65
2024/01/26 06:18:29;;;;;;;21.10;15.13;;;;;;;;;;4968461;28;20038;-65
2024/01/26 06:20:55;;;;;;;20.23;14.35;;;;;;;;;;4968131;28;20049;-65
2024/01/26 06:23:21;;;;;;;21.42;13.93;;;;;;;;;;4968501;28;20719;-65
2024/01/26 06:25:48;;;;;;;20.55;14.25;;;;;;;;;;4976642;28;20055;-65
2024/01/26 06:28:14;;;;;;;24.00;13.98;;;;;;;;;;4987567;28;20030;-65
2024/01/26 06:30:40;;;;;;;19.95;14.50;;;;;;;;;;4987121;28;20045;-65
2024/01/26 06:33:06;;;;;;;20.73;14.23;;;;;;;;;;4987802;28;20048;-65
2024/01/26 06:35:32;;;;;;;21.30;15.05;;;;;;;;;;4987814;28;20734;-65
2024/01/26 06:37:59;;;;;;;20.35;15.00;;;;;;;;;;4987955;28;20795;-65
2024/01/26 06:40:25;;;;;;;21.88;14.27;;;;;;;;;;4987030;28;20030;-65
2024/01/26 06:42:51;;;;;;;20.15;15.45;;;;;;;;;;4987009;28;20040;-65
2024/01/26 06:45:17;;;;;;;20.15;13.23;;;;;;;;;;4987184;28;20149;-65
2024/01/26 06:47:43;;;;;;;17.08;12.38;;;;;;;;;;4987256;28;20034;-65
2024/01/26 06:50:10;;;;;;;16.85;13.18;;;;;;;;;;4986458;28;20029;-65
2024/01/26 06:52:36;;;;;;;17.23;12.93;;;;;;;;;;4986796;28;20092;-65
2024/01/26 06:55:02;;;;;;;20.40;12.45;;;;;;;;;;4986489;28;20069;-65
2024/01/26 06:57:28;;;;;;;17.63;12.48;;;;;;;;;;4985969;28;20045;-65
2024/01/26 06:59:54;;;;;;;20.63;12.38;;;;;;;;;;4968353;28;20496;-65
2024/01/26 07:02:20;;;;;;;19.30;12.20;;;;;;;;;;4986294;28;20045;-64
2024/01/26 07:04:47;;;;;;;18.45;10.73;;;;;;;;;;4986249;28;20038;-65
2024/01/26 07:07:13;;;;;;;15.60;11.02;;;;;;;;;;4986228;28;20030;-65
2024/01/26 07:09:39;;;;;;;14.20;10.10;;;;;;;;;;4986389;28;20029;-65
2024/01/26 07:12:05;;;;;;;13.45;10.30;;;;;;;;;;4986533;28;22108;-65
2024/01/26 07:14:31;;;;;;;14.57;10.60;;;;;;;;;;4984635;28;20053;-65
2024/01/26 07:16:57;;;;;;;14.90;10.38;;;;;;;;;;4987116;28;20363;-64
2024/01/26 07:19:23;;;;;;;17.88;10.05;;;;;;;;;;4987021;28;20033;-64
2024/01/26 07:21:49;;;;;;;12.93;9.15;;;;;;;;;;4986778;28;20030;-64
2024/01/26 07:24:15;;;;;;;15.32;10.52;;;;;;;;;;4986229;28;20751;-64
2024/01/26 07:26:42;;;;;;;13.48;9.30;;;;;;;;;;4986579;28;20054;-64
2024/01/26 07:29:08;;;;;;;13.48;8.63;;;;;;;;;;4986185;28;20035;-65
2024/01/26 07:31:34;;;;;;;14.38;8.80;;;;;;;;;;4986429;28;20551;-65
2024/01/26 07:34:00;;;;;;;12.40;8.43;;;;;;;;;;4986799;28;20030;-65
2024/01/26 07:36:26;;;;;;;11.27;8.50;;;;;;;;;;4986140;28;20045;-65
2024/01/26 07:38:52;;;;;;;12.93;8.27;;;;;;;;;;4986083;28;20038;-65
2024/01/26 07:41:18;;;;;;;11.57;8.07;;;;;;;;;;4986758;28;20041;-65
2024/01/26 07:43:44;;;;;;;12.10;7.80;;;;;;;;;;4986222;28;21731;-65
2024/01/26 07:46:11;;;;;;;11.52;7.07;;;;;;;;;;4985625;28;20051;-65
2024/01/26 07:48:37;;;;;;;10.70;7.63;;;;;;;;;;4986554;28;20030;-65
2024/01/26 07:51:03;;;;;;;10.00;6.97;;;;;;;;;;4986278;28;20033;-65
2024/01/26 07:53:29;;;;;;;9.90;6.53;;;;;;;;;;4986837;28;20075;-65
2024/01/26 07:55:55;;;;;;;12.05;7.07;;;;;;;;;;4985501;28;20034;-65
2024/01/26 07:58:21;;;;;;;10.23;6.25;;;;;;;;;;4982675;28;20041;-65
2024/01/26 08:00:47;;;;;;;9.43;6.13;;;;;;;;;;4983875;28;20030;-65
2024/01/26 08:03:13;;;;;;;12.00;5.57;;;;;;;;;;4986452;28;20040;-65
2024/01/26 08:05:40;;;;;;;10.70;6.03;;;;;;;;;;4984530;28;20038;-65
2024/01/26 08:08:07;;;;;;;13.13;6.22;;;;;;;;;;4985675;28;20177;-65
2024/01/26 08:10:33;;;;;;;7.80;4.75;;;;;;;;;;4985955;28;20064;-65
2024/01/26 08:12:59;;;;;;;7.35;4.38;;;;;;;;;;4985478;28;20116;-65
2024/01/26 08:15:26;;;;;;;8.00;4.20;;;;;;;;;;4986014;28;20034;-64
2024/01/26 08:17:52;;;;;;;6.07;3.83;;;;;;;;;;4984717;28;20045;-65
2024/01/26 08:20:18;;;;;;;7.53;3.95;;;;;;;;;;4985559;28;20038;-65
2024/01/26 08:22:45;;;;;;;7.72;4.38;;;;;;;;;;4985635;28;20030;-65
2024/01/26 08:25:11;;;;;;;8.00;3.90;;;;;;;;;;4984059;28;20069;-64
2024/01/26 08:27:37;;;;;;;5.40;3.35;;;;;;;;;;4979539;28;20026;-65
2024/01/26 08:30:04;;;;;;;6.32;3.60;;;;;;;;;;4979721;28;20457;-64
2024/01/26 08:32:30;;;;;;;5.80;3.10;;;;;;;;;;4977756;28;20510;-64
2024/01/26 08:34:56;;;;;;;5.50;3.17;;;;;;;;;;4979158;28;20558;-64
2024/01/26 08:37:23;;;;;;;7.25;3.63;;;;;;;;;;4978473;28;20034;-64
2024/01/26 08:39:49;;;;;;;6.75;3.47;;;;;;;;;;4962764;28;20034;-65
2024/01/26 08:42:15;;;;;;;13.80;4.47;;;;;;;;;;4978632;28;20035;-64
2024/01/26 08:44:41;;;;;;;9.90;4.97;;;;;;;;;;4961535;28;20046;-64
2024/01/26 08:47:07;;;;;;;13.38;5.10;;;;;;;;;;4977937;28;20092;-64
2024/01/26 08:49:33;;;;;;;11.57;5.20;;;;;;;;;;4978428;28;20034;-64
2024/01/26 08:51:59;;;;;;;12.55;5.38;;;;;;;;;;4978541;28;20034;-64
2024/01/26 08:54:25;;;;;;;15.60;5.85;;;;;;;;;;4977751;28;20129;-64
2024/01/26 08:56:51;;;;;;;11.40;5.15;;;;;;;;;;4979759;28;20026;-64
2024/01/26 08:59:18;;;;;;;16.00;5.50;;;;;;;;;;4978220;28;20872;-64
2024/01/26 09:01:44;;;;;;;13.20;5.60;;;;;;;;;;4962319;28;20041;-64
2024/01/26 09:04:10;;;;;;;14.48;4.65;;;;;;;;;;4976019;28;20041;-64
2024/01/26 09:06:36;;;;;;;19.63;5.10;;;;;;;;;;4978539;28;20074;-64
2024/01/26 09:09:02;;;;;;;15.63;4.63;;;;;;;;;;4977234;28;20049;-64
2024/01/26 09:11:29;;;;;;;9.13;1.85;;;;;;;;;;4978484;28;20549;-64
2024/01/26 09:13:56;;;;;;;11.50;2.10;;;;;;;;;;4977917;28;20034;-64
2024/01/26 09:16:22;;;;;;;8.75;2.28;;;;;;;;;;4978575;28;20041;-64
2024/01/26 09:18:48;;;;;;;6.90;1.13;;;;;;;;;;4978574;28;20084;-64
2024/01/26 09:21:14;;;;;;;6.22;1.48;;;;;;;;;;4977727;28;20044;-64
2024/01/26 09:23:43;;;;;;;6.35;1.40;;;;;;;;;;4978390;28;20038;-64
2024/01/26 09:26:09;;;;;;;6.28;1.73;;;;;;;;;;4978062;28;20464;-64
2024/01/26 09:28:36;;;;;;;7.22;1.27;;;;;;;;;;4976796;28;20092;-64
2024/01/26 09:31:02;;;;;;;7.20;1.15;;;;;;;;;;4978543;28;20027;-64
2024/01/26 09:33:28;;;;;;;7.72;1.50;;;;;;;;;;4977391;28;20109;-64
2024/01/26 09:35:56;;;;;;;4.15;0.85;;;;;;;;;;4978138;28;20095;-64
2024/01/26 09:38:22;;;;;;;10.15;1.75;;;;;;;;;;4978163;28;20389;-64
2024/01/26 09:40:48;;;;;;;12.02;2.05;;;;;;;;;;4960922;28;20476;-65
2024/01/26 09:43:15;;;;;;;11.93;1.85;;;;;;;;;;4978387;28;20038;-64
2024/01/26 09:45:41;;;;;;;14.23;2.55;;;;;;;;;;4977161;28;20130;-64
2024/01/26 09:48:08;;;;;;;12.38;2.25;;;;;;;;;;4979259;28;20079;-64
2024/01/26 09:50:34;;;;;;;8.25;1.63;;;;;;;;;;4977699;28;20141;-64
2024/01/26 09:53:03;;;;;;;12.15;2.03;;;;;;;;;;4978613;28;20389;-64
2024/01/26 09:55:29;;;;;;;17.92;1.98;;;;;;;;;;4978013;28;21166;-64
2024/01/26 09:57:56;;;;;;;13.65;2.88;;;;;;;;;;4978339;28;20043;-64
2024/01/26 10:00:22;;;;;;;15.38;2.75;;;;;;;;;;4977338;28;20120;-64
2024/01/26 10:02:49;;;;;;;13.85;2.38;;;;;;;;;;4978091;28;20038;-64
2024/01/26 10:05:18;;;;;;;18.80;3.60;;;;;;;;;;4960922;28;20450;-64
2024/01/26 10:07:45;;;;;;;14.68;2.83;;;;;;;;;;4978500;28;20686;-64
2024/01/26 10:10:12;;;;;;;22.15;3.90;;;;;;;;;;4976826;28;20043;-64
2024/01/26 10:12:38;;;;;;;16.35;2.22;;;;;;;;;;4978665;28;20026;-64
2024/01/26 10:15:05;;;;;;;15.32;2.50;;;;;;;;;;4977335;28;20116;-64
2024/01/26 10:17:31;;;;;;;22.10;3.97;;;;;;;;;;4978975;28;20030;-64
2024/01/26 10:20:13;;;;;;;13.05;2.47;;;;;;;;;;4977497;28;20029;-64
2024/01/26 10:22:39;;;;;;;12.20;2.67;;;;;;;;;;4978147;28;21292;-64
2024/01/26 10:25:05;;;;;;;21.13;3.75;;;;;;;;;;4977577;28;20045;-64
2024/01/26 10:27:32;;;;;;;19.55;3.80;;;;;;;;;;4982466;28;20123;-64
2024/01/26 10:29:58;;;;;;;21.90;2.45;;;;;;;;;;4982072;28;20124;-65
2024/01/26 10:32:27;;;;;;;15.75;2.78;;;;;;;;;;4981252;28;20046;-64
2024/01/26 10:34:57;;;;;;;15.88;3.58;;;;;;;;;;4982362;28;20030;-64
2024/01/26 10:37:26;;;;;;;18.52;3.85;;;;;;;;;;4981915;28;20038;-64
2024/01/26 10:39:52;;;;;;;19.67;3.25;;;;;;;;;;4982450;28;20036;-64
2024/01/26 10:42:19;;;;;;;23.00;3.22;;;;;;;;;;4981608;28;20470;-64
2024/01/26 10:44:45;;;;;;;17.35;2.90;;;;;;;;;;4982271;28;20049;-65
2024/01/26 10:47:12;;;;;;;22.75;3.80;;;;;;;;;;4982700;28;20716;-65
2024/01/26 10:49:40;;;;;;;17.65;2.40;;;;;;;;;;4982188;28;20037;-65
2024/01/26 10:52:06;;;;;;;19.83;2.78;;;;;;;;;;4982274;28;20034;-64
2024/01/26 10:54:33;;;;;;;21.45;2.97;;;;;;;;;;4982466;28;20393;-65
2024/01/26 10:56:59;;;;;;;22.58;3.38;;;;;;;;;;4982289;28;20619;-65
2024/01/26 10:59:25;;;;;;;14.30;2.95;;;;;;;;;;4984247;28;20034;-65
2024/01/26 11:01:51;;;;;;;16.90;3.13;;;;;;;;;;4973887;28;20402;-65
2024/01/26 11:04:18;;;;;;;19.48;2.97;;;;;;;;;;4975675;28;20030;-65
2024/01/26 11:06:44;;;;;;;13.55;2.58;;;;;;;;;;4974753;28;20030;-65
2024/01/26 11:09:14;;;;;;;20.58;3.15;;;;;;;;;;4977306;28;20041;-65
2024/01/26 11:11:40;;;;;;;16.00;2.55;;;;;;;;;;4976624;28;20040;-65
2024/01/26 11:14:06;;;;;;;15.18;3.13;;;;;;;;;;4976236;28;20034;-65
2024/01/26 11:16:33;;;;;;;14.65;3.42;;;;;;;;;;4976756;28;20145;-65
2024/01/26 11:18:59;;;;;;;17.63;3.22;;;;;;;;;;4977286;28;20034;-65
2024/01/26 11:21:36;;;;;;;21.77;3.45;;;;;;;;;;4975789;28;20064;-65
2024/01/26 11:24:20;;;;;;;19.13;2.97;;;;;;;;;;4976889;28;20030;-65
2024/01/26 11:26:57;;;;;;;19.20;3.03;;;;;;;;;;4977665;28;20085;-65
2024/01/26 11:29:23;;;;;;;18.70;3.15;;;;;;;;;;4978291;28;20482;-65
2024/01/26 11:31:49;;;;;;;18.88;3.53;;;;;;;;;;4978057;28;20036;-65
2024/01/26 11:34:19;;;;;;;19.88;3.15;;;;;;;;;;4978825;28;20029;-65
2024/01/26 11:36:45;;;;;;;14.40;3.28;;;;;;;;;;4977981;28;20186;-65
2024/01/26 11:39:14;;;;;;;18.20;3.63;;;;;;;;;;4978212;28;20089;-65
2024/01/26 11:41:43;;;;;;;14.02;3.15;;;;;;;;;;4977919;28;20143;-65
2024/01/26 11:44:13;;;;;;;18.73;3.67;;;;;;;;;;4978469;28;20156;-65
2024/01/26 11:46:41;;;;;;;15.15;3.45;;;;;;;;;;4977845;28;20046;-65
2024/01/26 11:49:07;;;;;;;16.35;3.33;;;;;;;;;;4977551;28;20026;-65
2024/01/26 11:51:33;;;;;;;19.83;2.85;;;;;;;;;;4978762;28;20037;-66
2024/01/26 11:53:59;;;;;;;23.05;3.33;;;;;;;;;;4977416;28;20374;-65
2024/01/26 11:56:26;;;;;;;23.00;4.05;;;;;;;;;;4965121;28;20113;-65
2024/01/26 11:58:52;;;;;;;15.98;2.67;;;;;;;;;;4979880;28;20125;-65
2024/01/26 12:01:18;;;;;;;16.08;3.72;;;;;;;;;;4976325;28;20046;-65
2024/01/26 12:03:45;;;;;;;16.20;3.40;;;;;;;;;;4978052;28;20038;-65
2024/01/26 12:06:11;;;;;;;19.25;3.83;;;;;;;;;;4978864;28;20095;-65
2024/01/26 12:08:37;;;;;;;11.70;3.00;;;;;;;;;;4978404;28;20601;-65
2024/01/26 12:11:04;;;;;;;28.63;3.05;;;;;;;;;;4977319;28;20464;-65
2024/01/26 12:13:30;;;;;;;22.75;4.05;;;;;;;;;;4976564;28;20026;-65
2024/01/26 12:15:57;;;;;;;24.52;3.22;;;;;;;;;;4978210;28;20034;-65
2024/01/26 12:18:24;;;;;;;23.65;3.55;;;;;;;;;;4978387;28;20022;-65
2024/01/26 12:20:53;;;;;;;20.92;3.22;;;;;;;;;;4978224;28;20032;-65
2024/01/26 12:23:20;;;;;;;25.10;4.32;;;;;;;;;;4961039;28;20035;-65
2024/01/26 12:25:53;;;;;;;29.88;3.67;;;;;;;;;;4974661;28;20041;-65
2024/01/26 12:28:19;;;;;;;23.92;3.97;;;;;;;;;;4969891;28;20026;-65
2024/01/26 12:30:46;;;;;;;30.13;5.38;;;;;;;;;;4969307;28;20109;-65
2024/01/26 12:33:12;;;;;;;15.30;3.78;;;;;;;;;;4968494;28;20034;-65
2024/01/26 12:35:41;;;;;;;18.08;3.08;;;;;;;;;;4970702;28;20033;-65
2024/01/26 12:38:08;;;;;;;14.48;2.80;;;;;;;;;;4968940;28;20041;-65
2024/01/26 12:40:34;;;;;;;14.32;3.08;;;;;;;;;;4970782;28;20037;-65
2024/01/26 12:43:01;;;;;;;18.52;3.15;;;;;;;;;;4969015;28;20148;-65
2024/01/26 12:45:27;;;;;;;20.08;3.50;;;;;;;;;;4970406;28;20057;-65
2024/01/26 12:47:54;;;;;;;20.23;3.05;;;;;;;;;;4968662;28;20664;-65
2024/01/26 12:50:20;;;;;;;18.02;3.42;;;;;;;;;;4970780;28;20034;-65
2024/01/26 12:52:47;;;;;;;18.67;3.53;;;;;;;;;;4969104;28;20041;-65
2024/01/26 12:55:13;;;;;;;20.98;3.70;;;;;;;;;;4971255;28;20121;-65
2024/01/26 12:57:40;;;;;;;26.83;3.60;;;;;;;;;;4969077;28;20034;-65
2024/01/26 13:00:06;;;;;;;18.33;3.28;;;;;;;;;;4967323;28;20490;-65
2024/01/26 13:02:35;;;;;;;18.88;2.92;;;;;;;;;;4966934;28;20032;-65
2024/01/26 13:05:01;;;;;;;18.88;2.90;;;;;;;;;;4969383;28;20038;-65
2024/01/26 13:07:30;;;;;;;15.45;3.05;;;;;;;;;;4968918;28;20069;-65
2024/01/26 13:09:57;;;;;;;17.70;3.08;;;;;;;;;;4969316;28;20072;-65
2024/01/26 13:12:23;;;;;;;16.85;2.28;;;;;;;;;;4959541;28;20143;-65
2024/01/26 13:14:49;;;;;;;14.38;2.67;;;;;;;;;;4968195;28;20766;-65
2024/01/26 13:17:15;;;;;;;15.05;3.10;;;;;;;;;;4963567;28;20030;-65
2024/01/26 13:19:41;;;;;;;18.67;2.78;;;;;;;;;;4963005;28;20748;-65
2024/01/26 13:22:08;;;;;;;11.70;2.17;;;;;;;;;;4968482;28;20029;-65
2024/01/26 13:24:37;;;;;;;12.35;1.75;;;;;;;;;;4967756;28;20152;-65
2024/01/26 13:27:04;;;;;;;12.88;1.83;;;;;;;;;;4968206;28;20073;-65
2024/01/26 13:29:30;;;;;;;11.20;2.00;;;;;;;;;;4963817;28;20088;-65
2024/01/26 13:31:56;;;;;;;13.48;2.00;;;;;;;;;;4967183;28;20817;-65
2024/01/26 13:34:22;;;;;;;15.07;2.55;;;;;;;;;;4957470;28;20041;-65
2024/01/26 13:36:48;;;;;;;13.63;2.10;;;;;;;;;;4963302;28;21365;-65
2024/01/26 13:39:14;;;;;;;9.02;2.28;;;;;;;;;;4961995;28;20151;-65
2024/01/26 13:41:41;;;;;;;12.73;1.83;;;;;;;;;;4963194;28;20052;-65
2024/01/26 13:44:07;;;;;;;9.10;1.45;;;;;;;;;;4959294;28;20038;-65
2024/01/26 13:46:34;;;;;;;16.80;2.60;;;;;;;;;;4962576;28;20128;-65
2024/01/26 13:49:01;;;;;;;12.57;2.88;;;;;;;;;;4960548;28;20248;-65
2024/01/26 13:51:27;;;;;;;14.15;2.90;;;;;;;;;;4965318;28;20034;-65
2024/01/26 13:53:53;;;;;;;17.08;2.50;;;;;;;;;;4967409;28;20062;-65
2024/01/26 13:56:19;;;;;;;16.42;2.63;;;;;;;;;;4967811;28;20096;-65
2024/01/26 13:58:45;;;;;;;12.13;2.10;;;;;;;;;;4966952;28;21385;-65
2024/01/26 14:01:11;;;;;;;12.15;2.65;;;;;;;;;;4967496;28;20041;-65
2024/01/26 14:03:39;;;;;;;12.00;3.10;;;;;;;;;;4967760;28;21013;-65
2024/01/26 14:06:06;;;;;;;13.05;2.17;;;;;;;;;;4975713;28;20034;-65
2024/01/26 14:08:32;;;;;;;14.57;3.40;;;;;;;;;;4975583;28;20077;-65
2024/01/26 14:10:58;;;;;;;12.68;2.28;;;;;;;;;;4975844;28;20038;-65
2024/01/26 14:13:24;;;;;;;19.02;2.20;;;;;;;;;;4977680;28;21121;-65
2024/01/26 14:15:50;;;;;;;16.15;2.75;;;;;;;;;;4975257;28;20030;-65
2024/01/26 14:18:17;;;;;;;14.60;2.17;;;;;;;;;;4961090;28;20035;-65